createdAt,value
2022-12-09T00:01:28.274Z,33.55
2022-12-09T00:03:58.833Z,30.20
2022-12-09T00:06:30.254Z,30.10
2022-12-09T00:08:59.692Z,29.60
2022-12-09T00:11:28.664Z,30.20
2022-12-09T00:14:00.297Z,28.27
2022-12-09T00:16:28.891Z,32.20
2022-12-09T00:18:59.062Z,27.50
2022-12-09T00:21:33.725Z,28.77
2022-12-09T00:24:07.088Z,28.63
2022-12-09T00:26:35.955Z,28.17
2022-12-09T00:29:04.967Z,29.87
2022-12-09T00:31:39.456Z,27.90
2022-12-09T00:34:14.085Z,29.57
2022-12-09T00:36:42.843Z,28.27
2022-12-09T00:39:13.249Z,32.22
2022-12-09T00:41:42.066Z,30.07
2022-12-09T00:44:12.696Z,27.83
2022-12-09T00:46:41.368Z,29.60
2022-12-09T00:49:12.717Z,28.60
2022-12-09T00:51:41.343Z,29.67
2022-12-09T00:54:10.250Z,27.10
2022-12-09T00:56:39.172Z,27.58
2022-12-09T00:59:07.775Z,25.47
2022-12-09T01:01:36.982Z,28.70
2022-12-09T01:04:09.333Z,26.42
2022-12-09T01:06:41.824Z,25.83
2022-12-09T01:09:11.056Z,27.15
2022-12-09T01:11:39.590Z,27.47
2022-12-09T01:14:08.299Z,26.80
2022-12-09T01:16:37.690Z,24.20
2022-12-09T01:19:09.928Z,25.97
2022-12-09T01:21:39.895Z,25.83
2022-12-09T01:24:10.843Z,28.83
2022-12-09T01:26:40.191Z,28.83
2022-12-09T01:29:09.027Z,30.67
2022-12-09T01:31:38.217Z,25.77
2022-12-09T01:34:06.966Z,24.83
2022-12-09T01:36:35.662Z,25.87
2022-12-09T01:39:07.637Z,26.67
2022-12-09T01:41:36.675Z,27.17
2022-12-09T01:44:18.892Z,25.47
2022-12-09T01:46:48.643Z,26.57
2022-12-09T01:49:23.922Z,25.03
2022-12-09T01:52:03.928Z,25.60
2022-12-09T01:54:35.271Z,24.97
2022-12-09T01:57:06.603Z,23.03
2022-12-09T01:59:37.425Z,25.83
2022-12-09T02:02:12.091Z,25.98
2022-12-09T02:04:46.108Z,25.70
2022-12-09T02:07:15.190Z,26.73
2022-12-09T02:09:45.580Z,25.13
2022-12-09T02:12:18.187Z,23.93
2022-12-09T02:14:59.729Z,24.63
2022-12-09T02:17:37.069Z,25.73
2022-12-09T02:20:21.590Z,22.80
2022-12-09T02:23:00.969Z,23.98
2022-12-09T02:25:40.593Z,25.48
2022-12-09T02:28:43.041Z,24.67
2022-12-09T02:31:32.382Z,21.35
2022-12-09T02:34:14.746Z,21.42
2022-12-09T02:36:59.631Z,22.67
2022-12-09T02:39:39.408Z,23.33
2022-12-09T02:42:14.251Z,24.02
2022-12-09T02:44:46.680Z,24.37
2022-12-09T02:47:21.227Z,23.55
2022-12-09T02:49:57.389Z,24.83
2022-12-09T02:52:27.565Z,25.60
2022-12-09T02:55:00.476Z,27.25
2022-12-09T02:57:35.321Z,30.58
2022-12-09T03:00:08.605Z,24.88
2022-12-09T03:02:43.774Z,25.63
2022-12-09T03:05:24.650Z,25.47
2022-12-09T03:08:08.091Z,26.77
2022-12-09T03:10:45.566Z,26.10
2022-12-09T03:13:24.949Z,23.23
2022-12-09T03:16:08.587Z,26.57
2022-12-09T03:18:44.624Z,25.87
2022-12-09T03:21:20.385Z,24.20
2022-12-09T03:23:53.549Z,23.70
2022-12-09T03:26:26.399Z,25.47
2022-12-09T03:28:59.984Z,27.17
2022-12-09T03:31:32.565Z,25.83
2022-12-09T03:34:07.646Z,26.43
2022-12-09T03:36:42.225Z,21.80
2022-12-09T03:39:17.829Z,23.97
2022-12-09T03:41:51.030Z,21.50
2022-12-09T03:44:28.237Z,24.00
2022-12-09T03:46:57.351Z,22.63
2022-12-09T03:49:26.062Z,23.88
2022-12-09T03:52:03.952Z,22.40
2022-12-09T03:54:43.515Z,22.60
2022-12-09T03:57:19.195Z,23.38
2022-12-09T03:59:56.768Z,22.00
2022-12-09T04:02:26.398Z,25.38
2022-12-09T04:04:55.207Z,24.02
2022-12-09T04:07:25.494Z,26.42
2022-12-09T04:09:54.141Z,24.48
2022-12-09T04:12:22.613Z,22.92
2022-12-09T04:14:51.380Z,26.50
2022-12-09T04:17:20.307Z,24.45
2022-12-09T04:19:49.289Z,24.25
2022-12-09T04:22:18.174Z,22.33
2022-12-09T04:24:48.604Z,24.37
2022-12-09T04:27:17.655Z,22.07
2022-12-09T04:29:47.023Z,22.00
2022-12-09T04:32:15.884Z,26.95
2022-12-09T04:34:44.697Z,23.40
2022-12-09T04:37:15.331Z,23.70
2022-12-09T04:39:44.152Z,26.13
2022-12-09T04:42:14.485Z,26.97
2022-12-09T04:44:43.063Z,27.40
2022-12-09T04:47:11.995Z,26.53
2022-12-09T04:49:40.839Z,27.17
2022-12-09T04:52:09.338Z,29.97
2022-12-09T04:54:38.087Z,27.23
2022-12-09T04:57:06.691Z,25.38
2022-12-09T04:59:36.693Z,26.60
2022-12-09T05:02:05.639Z,28.70
2022-12-09T05:04:34.609Z,28.38
2022-12-09T05:07:03.396Z,29.38
2022-12-09T05:09:32.988Z,28.33
2022-12-09T05:12:01.730Z,28.27
2022-12-09T05:14:30.774Z,29.27
2022-12-09T05:17:00.931Z,26.23
2022-12-09T05:19:29.796Z,28.90
2022-12-09T05:21:58.850Z,31.42
2022-12-09T05:24:27.841Z,27.13
2022-12-09T05:26:56.615Z,30.50
2022-12-09T05:29:25.941Z,29.38
2022-12-09T05:31:54.736Z,28.67
2022-12-09T05:34:25.097Z,30.52
2022-12-09T05:36:54.190Z,28.05
2022-12-09T05:39:25.190Z,27.70
2022-12-09T05:41:53.912Z,26.83
2022-12-09T05:44:22.702Z,30.30
2022-12-09T05:46:52.290Z,30.23
2022-12-09T05:49:22.871Z,28.42
2022-12-09T05:51:54.292Z,25.35
2022-12-09T05:57:06.654Z,29.15
2022-12-09T05:59:35.631Z,30.00
2022-12-09T06:02:09.818Z,28.33
2022-12-09T06:04:39.351Z,27.45
2022-12-09T06:07:08.080Z,28.52
2022-12-09T06:09:37.084Z,26.33
2022-12-09T06:12:08.392Z,28.15
2022-12-09T06:14:37.110Z,26.75
2022-12-09T06:17:06.856Z,29.85
2022-12-09T06:19:35.951Z,28.48
2022-12-09T06:22:04.944Z,30.63
2022-12-09T06:24:35.890Z,29.67
2022-12-09T06:27:06.424Z,30.08
2022-12-09T06:29:35.368Z,28.73
2022-12-09T06:32:04.749Z,28.83
2022-12-09T06:34:33.622Z,28.63
2022-12-09T06:37:02.726Z,27.65
2022-12-09T06:39:32.003Z,27.60
2022-12-09T06:42:01.231Z,25.60
2022-12-09T06:44:31.985Z,27.65
2022-12-09T06:47:01.267Z,26.73
2022-12-09T06:49:31.671Z,28.20
2022-12-09T06:52:01.200Z,27.00
2022-12-09T06:54:30.316Z,27.02
2022-12-09T06:56:58.988Z,26.95
2022-12-09T06:59:27.682Z,28.17
2022-12-09T07:01:58.675Z,23.90
2022-12-09T07:04:27.987Z,28.95
2022-12-09T07:06:57.374Z,30.15
2022-12-09T07:09:26.151Z,29.08
2022-12-09T07:11:55.380Z,28.15
2022-12-09T07:14:24.638Z,31.27
2022-12-09T07:16:53.672Z,30.15
2022-12-09T07:19:25.032Z,29.55
2022-12-09T07:21:53.953Z,27.95
2022-12-09T07:24:23.184Z,26.83
2022-12-09T07:26:52.083Z,27.08
2022-12-09T07:29:21.013Z,27.00
2022-12-09T07:31:50.662Z,26.50
2022-12-09T07:34:19.473Z,27.27
2022-12-09T07:36:49.510Z,26.05
2022-12-09T07:39:20.015Z,25.77
2022-12-09T07:41:53.285Z,26.05
2022-12-09T07:44:22.270Z,25.27
2022-12-09T07:46:51.450Z,23.15
2022-12-09T07:49:20.971Z,23.73
2022-12-09T07:51:51.517Z,23.73
2022-12-09T07:54:21.966Z,25.60
2022-12-09T07:56:51.819Z,23.50
2022-12-09T07:59:20.451Z,23.15
2022-12-09T08:01:49.275Z,22.80
2022-12-09T08:04:18.096Z,21.65
2022-12-09T08:06:47.411Z,20.90
2022-12-09T08:09:17.598Z,20.80
2022-12-09T08:11:49.474Z,21.65
2022-12-09T08:14:18.161Z,21.48
2022-12-09T08:16:49.290Z,22.17
2022-12-09T08:19:17.985Z,22.85
2022-12-09T08:21:52.832Z,19.95
2022-12-09T08:24:24.781Z,21.88
2022-12-09T08:26:53.475Z,21.48
2022-12-09T08:29:23.683Z,20.77
2022-12-09T08:31:55.211Z,20.73
2022-12-09T08:34:24.045Z,20.10
2022-12-09T08:36:57.036Z,20.90
2022-12-09T08:39:30.377Z,20.50
2022-12-09T08:42:01.639Z,20.03
2022-12-09T08:44:30.520Z,17.60
2022-12-09T08:47:08.183Z,16.50
2022-12-09T08:49:38.678Z,16.80
2022-12-09T08:52:08.728Z,16.10
2022-12-09T08:54:38.836Z,15.67
2022-12-09T08:57:07.720Z,15.07
2022-12-09T09:12:09.562Z,13.80
2022-12-09T09:15:23.927Z,12.00
2022-12-09T09:17:54.347Z,12.50
2022-12-09T09:20:23.428Z,11.67
2022-12-09T09:22:58.095Z,11.73
2022-12-09T09:25:47.727Z,9.93
2022-12-09T09:28:31.957Z,9.23
2022-12-09T09:40:19.155Z,8.00
2022-12-09T09:43:20.742Z,9.63
2022-12-09T09:45:50.590Z,8.77
2022-12-09T09:48:25.296Z,9.13
2022-12-09T09:51:20.560Z,8.47
2022-12-09T09:53:53.372Z,8.20
2022-12-09T10:00:26.665Z,8.53
2022-12-09T10:03:17.344Z,7.60
2022-12-09T10:06:07.933Z,7.87
2022-12-09T10:08:49.690Z,8.57
2022-12-09T10:11:27.192Z,9.53
2022-12-09T10:14:11.222Z,7.90
2022-12-09T10:16:46.568Z,7.43
2022-12-09T10:19:26.900Z,8.10
2022-12-09T10:22:00.802Z,7.50
2022-12-09T10:24:39.216Z,11.00
2022-12-09T10:27:25.901Z,9.60
2022-12-09T10:30:03.838Z,10.23
2022-12-09T10:32:37.663Z,10.17
2022-12-09T10:35:16.572Z,9.10
2022-12-09T10:37:49.215Z,7.63
2022-12-09T10:40:27.050Z,8.97
2022-12-09T10:43:16.765Z,8.33
2022-12-09T10:48:56.313Z,7.30
2022-12-09T10:51:28.858Z,8.30
2022-12-09T10:54:02.705Z,7.10
2022-12-09T10:56:39.388Z,8.70
2022-12-09T10:59:23.299Z,7.57
2022-12-09T11:01:56.721Z,8.03
2022-12-09T11:04:36.020Z,8.03
2022-12-09T11:07:17.307Z,8.17
2022-12-09T11:09:51.186Z,6.90
2022-12-09T11:12:40.648Z,8.83
2022-12-09T11:15:29.453Z,8.13
2022-12-09T11:18:06.082Z,8.90
2022-12-09T11:20:37.558Z,9.30
2022-12-09T11:23:16.387Z,7.70
2022-12-09T11:25:56.535Z,8.20
2022-12-09T11:28:31.315Z,8.00
2022-12-09T11:33:58.382Z,9.80
2022-12-09T11:36:34.286Z,8.10
2022-12-09T11:39:26.449Z,8.47
2022-12-09T11:42:18.475Z,8.87
2022-12-09T11:44:58.186Z,7.13
2022-12-09T11:47:57.344Z,8.17
2022-12-09T11:50:32.903Z,8.30
2022-12-09T11:53:27.518Z,7.97
2022-12-09T11:56:04.665Z,9.83
2022-12-09T11:58:43.066Z,9.00
2022-12-09T12:01:22.590Z,18.50
2022-12-09T12:03:57.757Z,8.17
2022-12-09T12:06:32.411Z,8.53
2022-12-09T12:09:11.366Z,8.83
2022-12-09T12:11:48.588Z,8.60
2022-12-09T12:14:26.193Z,9.43
2022-12-09T12:17:18.547Z,9.03
2022-12-09T12:19:52.102Z,7.40
2022-12-09T12:22:56.497Z,9.10
2022-12-09T12:25:55.756Z,8.20
2022-12-09T12:38:51.091Z,7.23
2022-12-09T12:41:53.253Z,9.53
2022-12-09T12:45:05.314Z,6.30
2022-12-09T12:47:47.538Z,8.00
2022-12-09T12:50:38.743Z,7.70
2022-12-09T12:53:23.159Z,8.40
2022-12-09T12:56:00.624Z,6.80
2022-12-09T12:58:50.370Z,7.23
2022-12-09T13:01:30.679Z,10.33
2022-12-09T13:08:26.598Z,9.57
2022-12-09T13:11:04.576Z,8.20
2022-12-09T13:13:39.481Z,9.23
2022-12-09T13:16:19.461Z,9.67
2022-12-09T13:24:53.114Z,7.63
2022-12-09T13:27:38.533Z,12.07
2022-12-09T13:46:43.446Z,12.50
2022-12-09T13:53:27.730Z,11.00
2022-12-09T13:56:19.563Z,10.07
2022-12-09T13:59:46.863Z,11.47
2022-12-09T14:02:44.068Z,9.83
2022-12-09T14:05:49.573Z,12.40
2022-12-09T14:08:25.347Z,10.07
2022-12-09T14:21:06.003Z,9.70
2022-12-09T14:23:47.148Z,8.97
2022-12-09T14:26:35.911Z,9.70
2022-12-09T14:29:05.117Z,10.10
2022-12-09T14:32:01.787Z,11.40
2022-12-09T14:34:38.699Z,11.17
2022-12-09T14:37:46.679Z,10.67
2022-12-09T14:40:39.215Z,11.00
2022-12-09T14:43:28.317Z,10.87
2022-12-09T14:46:02.297Z,11.17
2022-12-09T14:48:39.209Z,14.37
2022-12-09T14:56:34.558Z,9.60
2022-12-09T14:59:09.148Z,10.23
2022-12-09T15:01:56.359Z,9.87
2022-12-09T15:04:40.410Z,11.00
2022-12-09T15:07:12.949Z,9.87
2022-12-09T15:09:55.535Z,10.30
2022-12-09T15:12:36.527Z,9.83
2022-12-09T15:15:13.171Z,9.40
2022-12-09T15:17:46.486Z,9.27
2022-12-09T15:20:27.578Z,9.07
2022-12-09T15:23:00.064Z,10.87
2022-12-09T15:25:29.782Z,10.30
2022-12-09T15:28:02.459Z,10.30
2022-12-09T15:30:34.776Z,10.30
2022-12-09T15:33:04.463Z,10.30
2022-12-09T15:35:34.344Z,10.97
2022-12-09T15:38:08.164Z,11.10
2022-12-09T15:40:58.874Z,10.57
2022-12-09T15:43:29.113Z,9.97
2022-12-09T15:45:58.831Z,9.83
2022-12-09T15:48:37.219Z,10.27
2022-12-09T15:51:13.534Z,10.17
2022-12-09T15:53:53.551Z,10.57
2022-12-09T15:56:31.200Z,9.97
2022-12-09T15:59:11.898Z,10.63
2022-12-09T16:01:42.014Z,10.13
2022-12-09T16:04:11.302Z,10.50
2022-12-09T16:06:39.802Z,10.77
2022-12-09T16:09:15.641Z,10.27
2022-12-09T16:11:48.509Z,10.70
2022-12-09T16:14:21.298Z,10.17
2022-12-09T16:16:55.233Z,11.20
2022-12-09T16:19:33.976Z,10.60
2022-12-09T16:22:08.221Z,11.63
2022-12-09T16:25:13.005Z,11.70
2022-12-09T16:27:38.042Z,11.47
2022-12-09T16:30:16.797Z,12.10
2022-12-09T16:32:47.423Z,11.77
2022-12-09T16:35:26.297Z,10.73
2022-12-09T16:38:17.373Z,14.10
2022-12-09T16:41:14.429Z,12.37
2022-12-09T16:43:59.221Z,13.17
2022-12-09T16:46:43.202Z,12.70
2022-12-09T16:49:11.751Z,11.13
2022-12-09T16:51:41.560Z,10.93
2022-12-09T16:54:20.573Z,11.07
2022-12-09T16:56:51.286Z,10.67
2022-12-09T16:59:47.312Z,10.87
2022-12-09T17:02:28.196Z,10.20
2022-12-09T17:04:56.907Z,12.00
2022-12-09T17:07:25.429Z,11.37
2022-12-09T17:09:54.005Z,11.20
2022-12-09T17:12:22.549Z,12.17
2022-12-09T17:14:51.369Z,12.00
2022-12-09T17:17:21.168Z,10.30
2022-12-09T17:19:49.676Z,10.40
2022-12-09T17:22:18.957Z,9.47
2022-12-09T17:24:47.534Z,9.23
2022-12-09T17:27:16.128Z,10.20
2022-12-09T17:29:46.151Z,10.50
2022-12-09T17:32:15.107Z,10.67
2022-12-09T17:34:45.083Z,10.50
2022-12-09T17:37:13.571Z,10.53
2022-12-09T17:39:42.074Z,12.27
2022-12-09T17:42:10.593Z,10.00
2022-12-09T17:44:39.080Z,10.83
2022-12-09T17:47:07.980Z,11.43
2022-12-09T17:49:36.438Z,13.17
2022-12-09T17:52:06.429Z,12.17
2022-12-09T17:54:34.983Z,10.93
2022-12-09T17:57:03.395Z,9.63
2022-12-09T17:59:32.076Z,10.07
2022-12-09T18:02:03.533Z,10.27
2022-12-09T18:04:33.337Z,9.07
2022-12-09T18:07:01.816Z,14.87
2022-12-09T18:09:31.588Z,15.93
2022-12-09T18:12:00.297Z,13.73
2022-12-09T18:14:29.423Z,17.07
2022-12-09T18:16:57.890Z,19.70
2022-12-09T18:19:27.135Z,15.57
2022-12-09T18:21:56.358Z,22.10
2022-12-09T18:24:25.265Z,12.70
2022-12-09T18:26:55.445Z,16.23
2022-12-09T18:29:24.776Z,20.40
2022-12-09T18:31:56.662Z,19.20
2022-12-09T18:34:25.931Z,14.80
2022-12-09T18:36:55.664Z,13.20
2022-12-09T18:39:24.117Z,11.77
2022-12-09T18:41:52.710Z,15.93
2022-12-09T18:44:22.746Z,12.10
2022-12-09T18:46:52.102Z,14.20
2022-12-09T18:49:27.134Z,15.87
2022-12-09T18:51:56.675Z,13.03
2022-12-09T18:54:29.184Z,12.27
2022-12-09T18:56:57.908Z,12.07
2022-12-09T18:59:27.787Z,21.93
2022-12-09T19:01:56.282Z,12.27
2022-12-09T19:04:27.903Z,17.67
2022-12-09T19:06:59.868Z,13.40
2022-12-09T19:09:33.350Z,17.40
2022-12-09T19:12:37.950Z,16.70
2022-12-09T19:14:53.704Z,17.23
2022-12-09T19:17:23.074Z,15.70
2022-12-09T19:19:54.161Z,15.93
2022-12-09T19:22:22.877Z,14.20
2022-12-09T19:24:51.389Z,16.40
2022-12-09T19:27:20.084Z,13.97
2022-12-09T19:29:48.733Z,16.30
2022-12-09T19:32:51.586Z,11.80
2022-12-09T19:35:08.649Z,13.30
2022-12-09T19:37:37.342Z,12.40
2022-12-09T19:40:08.193Z,20.90
2022-12-09T19:42:36.866Z,20.90
2022-12-09T19:45:10.441Z,15.73
2022-12-09T19:47:44.724Z,12.73
2022-12-09T19:50:13.343Z,14.07
2022-12-09T19:52:42.437Z,13.37
2022-12-09T19:55:11.530Z,11.53
2022-12-09T19:57:42.878Z,14.83
2022-12-09T20:00:13.427Z,12.67
2022-12-09T20:02:42.233Z,13.90
2022-12-09T20:05:12.229Z,13.77
2022-12-09T20:07:40.733Z,15.80
2022-12-09T20:10:11.136Z,16.93
2022-12-09T20:12:39.857Z,14.43
2022-12-09T20:15:09.762Z,15.67
2022-12-09T20:17:38.219Z,15.40
2022-12-09T20:20:08.760Z,16.93
2022-12-09T20:22:38.826Z,17.40
2022-12-09T20:25:08.767Z,21.53
2022-12-09T20:27:38.231Z,15.87
2022-12-09T20:30:08.605Z,13.73
2022-12-09T20:32:37.265Z,14.67
2022-12-09T20:35:08.620Z,15.63
2022-12-09T20:37:39.258Z,15.70
2022-12-09T20:40:09.558Z,14.60
2022-12-09T20:42:38.816Z,16.03
2022-12-09T20:45:09.082Z,15.83
2022-12-09T20:47:37.640Z,13.83
2022-12-09T20:50:07.771Z,13.97
2022-12-09T20:52:47.429Z,16.60
2022-12-09T20:55:20.105Z,15.27
2022-12-09T20:57:50.838Z,17.27
2022-12-09T21:00:19.869Z,15.70
2022-12-09T21:02:48.644Z,16.23
2022-12-09T21:05:17.436Z,16.57
2022-12-09T21:07:47.777Z,15.87
2022-12-09T21:10:16.684Z,14.53
2022-12-09T21:12:45.231Z,15.80
2022-12-09T21:15:14.229Z,16.50
2022-12-09T21:17:42.704Z,16.70
2022-12-09T21:20:13.210Z,15.80
2022-12-09T21:22:41.610Z,17.90
2022-12-09T21:25:11.794Z,15.30
2022-12-09T21:27:40.773Z,17.70
2022-12-09T21:30:11.132Z,18.80
2022-12-09T21:32:39.952Z,17.30
2022-12-09T21:35:09.943Z,14.47
2022-12-09T21:37:38.744Z,17.10
2022-12-09T21:40:08.693Z,23.40
2022-12-09T21:42:38.800Z,14.37
2022-12-09T21:45:08.367Z,16.60
2022-12-09T21:47:36.966Z,15.67
2022-12-09T21:50:10.059Z,16.77
2022-12-09T21:52:38.993Z,16.93
2022-12-09T21:55:08.197Z,16.50
2022-12-09T21:57:37.962Z,16.03
2022-12-09T22:00:08.871Z,21.60
2022-12-09T22:02:37.888Z,15.73
2022-12-09T22:05:08.309Z,15.37
2022-12-09T22:07:42.654Z,14.83
2022-12-09T22:10:11.660Z,16.37
2022-12-09T22:12:41.387Z,15.03
2022-12-09T22:15:11.008Z,15.73
2022-12-09T22:17:39.938Z,14.80
2022-12-09T22:20:54.154Z,16.13
2022-12-09T22:23:00.169Z,15.50
2022-12-09T22:25:28.878Z,15.00
2022-12-09T22:27:59.130Z,16.93
2022-12-09T22:30:28.060Z,15.17
2022-12-09T22:32:57.851Z,14.83
2022-12-09T22:35:28.102Z,15.40
2022-12-09T22:37:59.270Z,14.80
2022-12-09T22:40:28.174Z,14.97
2022-12-09T22:42:58.240Z,14.97
2022-12-09T22:45:28.473Z,15.47
2022-12-09T22:47:57.722Z,15.43
2022-12-09T22:50:26.740Z,16.80
2022-12-09T22:52:56.409Z,14.80
2022-12-09T22:55:25.326Z,16.57
2022-12-09T22:57:53.833Z,15.27
2022-12-09T23:00:30.110Z,16.00
2022-12-09T23:02:59.626Z,15.73
2022-12-09T23:05:34.585Z,14.10
2022-12-09T23:08:04.522Z,15.00
2022-12-09T23:10:34.167Z,15.17
2022-12-09T23:13:04.820Z,14.23
2022-12-09T23:15:35.750Z,14.87
2022-12-09T23:18:07.870Z,16.47
2022-12-09T23:20:36.829Z,17.20
2022-12-09T23:23:05.758Z,16.40
2022-12-09T23:25:35.138Z,15.40
2022-12-09T23:28:04.380Z,17.07
2022-12-09T23:30:35.595Z,16.92
2022-12-09T23:33:04.873Z,16.07
2022-12-09T23:35:37.761Z,16.17
2022-12-09T23:38:06.868Z,15.87
2022-12-09T23:40:35.955Z,15.43
2022-12-09T23:43:04.907Z,16.30
2022-12-09T23:45:36.410Z,14.80
2022-12-09T23:48:05.672Z,16.67
2022-12-09T23:50:34.661Z,16.80
2022-12-09T23:53:03.556Z,16.30
2022-12-09T23:55:32.812Z,18.00
2022-12-09T23:58:01.804Z,16.83
